createdAt,value
2022-12-15T00:01:20.592Z,23.10
2022-12-15T00:04:05.011Z,23.33
2022-12-15T00:06:49.311Z,24.35
2022-12-15T00:09:33.725Z,23.92
2022-12-15T00:12:18.583Z,24.67
2022-12-15T00:15:03.100Z,23.75
2022-12-15T00:17:47.296Z,23.02
2022-12-15T00:20:31.938Z,24.63
2022-12-15T00:23:16.386Z,23.80
2022-12-15T00:26:04.083Z,24.48
2022-12-15T00:28:48.301Z,22.85
2022-12-15T00:31:32.862Z,22.77
2022-12-15T00:34:17.332Z,24.48
2022-12-15T00:37:01.525Z,23.17
2022-12-15T00:39:27.310Z,22.38
2022-12-15T00:41:53.124Z,23.17
2022-12-15T00:44:20.872Z,24.05
2022-12-15T00:46:55.924Z,21.00
2022-12-15T00:49:42.569Z,23.00
2022-12-15T00:52:27.959Z,21.23
2022-12-15T00:55:12.663Z,21.65
2022-12-15T00:57:57.469Z,20.90
2022-12-15T01:00:42.378Z,22.02
2022-12-15T01:03:29.787Z,23.90
2022-12-15T01:06:14.551Z,22.00
2022-12-15T01:08:59.131Z,21.67
2022-12-15T01:11:43.501Z,23.42
2022-12-15T01:14:27.965Z,22.15
2022-12-15T01:17:12.502Z,22.35
2022-12-15T01:19:56.915Z,23.13
2022-12-15T01:22:22.971Z,22.48
2022-12-15T01:24:48.740Z,23.67
2022-12-15T01:27:14.834Z,23.60
2022-12-15T01:29:40.681Z,23.63
2022-12-15T01:32:06.887Z,24.27
2022-12-15T01:34:32.660Z,25.80
2022-12-15T01:36:58.524Z,27.90
2022-12-15T01:39:24.449Z,26.75
2022-12-15T01:41:50.281Z,26.48
2022-12-15T01:44:22.693Z,24.40
2022-12-15T01:46:52.506Z,25.20
2022-12-15T01:49:25.894Z,24.27
2022-12-15T01:51:58.068Z,25.23
2022-12-15T01:54:28.064Z,24.88
2022-12-15T01:56:59.169Z,24.20
2022-12-15T01:59:32.482Z,25.00
2022-12-15T02:01:58.483Z,25.98
2022-12-15T02:04:24.592Z,23.50
2022-12-15T02:06:52.333Z,23.40
2022-12-15T02:09:20.952Z,26.13
2022-12-15T02:12:08.159Z,24.60
2022-12-15T02:14:58.225Z,23.98
2022-12-15T02:17:36.533Z,25.05
2022-12-15T02:20:27.461Z,24.17
2022-12-15T02:23:21.086Z,25.33
2022-12-15T02:25:52.515Z,25.23
2022-12-15T02:28:36.981Z,24.73
2022-12-15T02:31:36.415Z,24.17
2022-12-15T02:34:13.915Z,23.77
2022-12-15T02:36:43.955Z,23.73
2022-12-15T02:39:13.412Z,23.63
2022-12-15T02:41:42.064Z,23.83
2022-12-15T02:44:11.406Z,23.30
2022-12-15T02:46:45.208Z,25.13
2022-12-15T02:49:29.283Z,23.60
2022-12-15T02:52:12.863Z,24.70
2022-12-15T02:55:10.765Z,22.35
2022-12-15T02:58:01.232Z,23.25
2022-12-15T03:00:30.259Z,24.42
2022-12-15T03:02:56.436Z,24.63
2022-12-15T03:05:24.148Z,23.63
2022-12-15T03:07:52.216Z,24.05
2022-12-15T03:10:21.222Z,23.10
2022-12-15T03:12:47.031Z,22.33
2022-12-15T03:15:13.112Z,22.80
2022-12-15T03:17:39.112Z,22.05
2022-12-15T03:20:05.439Z,23.52
2022-12-15T03:22:31.301Z,20.73
2022-12-15T03:24:57.426Z,24.48
2022-12-15T03:27:23.273Z,25.52
2022-12-15T03:29:49.160Z,23.58
2022-12-15T03:32:15.075Z,22.48
2022-12-15T03:34:41.193Z,22.27
2022-12-15T03:37:07.234Z,22.58
2022-12-15T03:39:33.326Z,24.52
2022-12-15T03:41:59.192Z,21.63
2022-12-15T03:44:25.140Z,21.45
2022-12-15T03:46:50.884Z,21.65
2022-12-15T03:49:16.735Z,20.88
2022-12-15T03:51:42.507Z,23.02
2022-12-15T03:54:08.286Z,21.55
2022-12-15T03:56:34.116Z,21.80
2022-12-15T03:58:59.958Z,22.05
2022-12-15T04:01:31.367Z,20.15
2022-12-15T04:04:00.882Z,20.45
2022-12-15T04:06:28.205Z,20.73
2022-12-15T04:08:54.062Z,19.98
2022-12-15T04:11:19.864Z,22.10
2022-12-15T04:13:45.765Z,21.48
2022-12-15T04:16:14.795Z,20.95
2022-12-15T04:18:43.669Z,19.52
2022-12-15T04:21:09.456Z,21.75
2022-12-15T04:23:35.194Z,24.25
2022-12-15T04:26:19.671Z,24.05
2022-12-15T04:29:03.953Z,22.02
2022-12-15T04:31:50.876Z,22.60
2022-12-15T04:34:41.533Z,21.70
2022-12-15T04:37:30.381Z,21.30
2022-12-15T04:40:15.123Z,20.88
2022-12-15T04:43:03.519Z,19.38
2022-12-15T04:45:47.935Z,20.05
2022-12-15T04:48:32.212Z,20.05
2022-12-15T04:51:16.666Z,21.33
2022-12-15T04:54:02.622Z,21.95
2022-12-15T04:56:47.083Z,22.60
2022-12-15T04:59:34.948Z,19.65
2022-12-15T05:02:19.440Z,20.17
2022-12-15T05:05:03.717Z,20.58
2022-12-15T05:07:48.158Z,19.67
2022-12-15T05:10:32.547Z,18.00
2022-12-15T05:13:24.232Z,16.73
2022-12-15T05:16:08.556Z,16.65
2022-12-15T05:18:52.810Z,16.65
2022-12-15T05:21:37.092Z,20.40
2022-12-15T05:24:21.462Z,19.13
2022-12-15T05:27:05.865Z,18.52
2022-12-15T05:29:50.313Z,18.75
2022-12-15T05:32:16.574Z,20.92
2022-12-15T05:34:42.389Z,19.95
2022-12-15T05:37:08.250Z,17.55
2022-12-15T05:39:34.206Z,18.88
2022-12-15T05:42:00.448Z,20.52
2022-12-15T05:44:27.917Z,19.45
2022-12-15T05:46:53.823Z,17.45
2022-12-15T05:49:20.141Z,17.77
2022-12-15T05:51:47.192Z,23.88
2022-12-15T05:54:15.593Z,19.88
2022-12-15T05:56:41.461Z,19.40
2022-12-15T05:59:07.716Z,18.48
2022-12-15T06:01:34.721Z,19.80
2022-12-15T06:04:01.198Z,20.38
2022-12-15T06:06:27.837Z,19.48
2022-12-15T06:08:53.842Z,19.30
2022-12-15T06:11:21.458Z,19.13
2022-12-15T06:13:48.101Z,18.02
2022-12-15T06:16:21.847Z,17.92
2022-12-15T06:18:50.681Z,17.85
2022-12-15T06:21:19.543Z,19.10
2022-12-15T06:23:47.246Z,18.88
2022-12-15T06:26:13.527Z,17.30
2022-12-15T06:28:39.953Z,18.05
2022-12-15T06:31:08.171Z,18.58
2022-12-15T06:33:34.718Z,17.13
2022-12-15T06:36:06.637Z,16.20
2022-12-15T06:38:33.185Z,17.05
2022-12-15T06:41:00.132Z,15.77
2022-12-15T06:43:26.877Z,16.02
2022-12-15T06:45:52.952Z,15.85
2022-12-15T06:48:21.865Z,15.10
2022-12-15T06:50:50.376Z,17.50
2022-12-15T06:53:18.524Z,15.65
2022-12-15T06:55:44.796Z,16.63
2022-12-15T06:58:11.712Z,15.43
2022-12-15T07:00:41.235Z,17.95
2022-12-15T07:03:16.909Z,16.90
2022-12-15T07:05:44.242Z,17.48
2022-12-15T07:08:11.515Z,16.05
2022-12-15T07:10:41.791Z,16.33
2022-12-15T07:13:11.826Z,13.98
2022-12-15T07:15:38.187Z,12.65
2022-12-15T07:18:04.575Z,16.17
2022-12-15T07:20:30.588Z,16.67
2022-12-15T07:22:56.515Z,16.33
2022-12-15T07:25:22.891Z,14.55
2022-12-15T07:27:48.946Z,13.38
2022-12-15T07:30:16.982Z,11.48
2022-12-15T07:32:43.603Z,14.80
2022-12-15T07:35:16.021Z,16.52
2022-12-15T07:37:41.833Z,13.23
2022-12-15T07:40:08.099Z,12.27
2022-12-15T07:42:33.825Z,12.02
2022-12-15T07:44:59.656Z,13.00
2022-12-15T07:47:27.169Z,12.55
2022-12-15T07:49:54.028Z,13.45
2022-12-15T07:52:20.336Z,15.18
2022-12-15T07:54:46.092Z,13.57
2022-12-15T07:57:12.005Z,11.98
2022-12-15T07:59:37.831Z,12.25
2022-12-15T08:02:04.180Z,10.18
2022-12-15T08:04:30.791Z,9.93
2022-12-15T08:06:57.597Z,13.70
2022-12-15T08:09:24.617Z,11.80
2022-12-15T08:11:50.464Z,11.07
2022-12-15T08:14:18.295Z,11.25
2022-12-15T08:16:45.095Z,10.50
2022-12-15T08:19:13.076Z,8.73
2022-12-15T08:21:39.792Z,8.93
2022-12-15T08:24:07.394Z,9.60
2022-12-15T08:26:33.835Z,9.52
2022-12-15T08:29:40.370Z,9.25
2022-12-15T08:31:53.320Z,9.68
2022-12-15T08:34:19.360Z,9.57
2022-12-15T08:36:45.222Z,10.13
2022-12-15T08:39:11.033Z,10.40
2022-12-15T08:41:36.965Z,9.18
2022-12-15T08:44:03.086Z,9.27
2022-12-15T08:46:33.721Z,9.13
2022-12-15T08:49:02.769Z,9.43
2022-12-15T08:51:30.462Z,8.57
2022-12-15T08:53:59.133Z,9.35
2022-12-15T08:56:26.129Z,7.95
2022-12-15T08:59:01.863Z,6.70
2022-12-15T09:01:31.027Z,6.28
2022-12-15T09:03:58.856Z,6.20
2022-12-15T09:06:29.271Z,5.88
2022-12-15T09:08:59.905Z,6.03
2022-12-15T09:11:28.100Z,5.75
2022-12-15T09:13:54.160Z,5.72
2022-12-15T09:16:20.993Z,5.30
2022-12-15T09:18:50.896Z,5.28
2022-12-15T09:21:18.362Z,5.85
2022-12-15T09:23:49.832Z,5.80
2022-12-15T09:26:15.588Z,6.78
2022-12-15T09:28:42.474Z,6.65
2022-12-15T09:31:11.429Z,6.32
2022-12-15T09:33:37.999Z,6.18
2022-12-15T09:36:05.212Z,6.18
2022-12-15T09:38:33.496Z,5.38
2022-12-15T09:41:07.642Z,5.18
2022-12-15T09:43:34.961Z,6.10
2022-12-15T09:46:22.624Z,6.18
2022-12-15T09:48:50.972Z,6.82
2022-12-15T09:51:18.691Z,8.48
2022-12-15T09:53:54.700Z,8.90
2022-12-15T09:56:29.971Z,8.90
2022-12-15T09:59:24.353Z,9.47
2022-12-15T10:02:03.228Z,8.35
2022-12-15T10:04:45.769Z,10.65
2022-12-15T10:07:42.985Z,7.88
2022-12-15T10:10:23.083Z,6.32
2022-12-15T10:13:01.720Z,7.65
2022-12-15T10:15:54.255Z,18.58
2022-12-15T10:18:24.963Z,37.08
2022-12-15T10:21:00.981Z,37.58
2022-12-15T10:23:26.791Z,33.63
2022-12-15T10:26:15.216Z,22.63
2022-12-15T10:29:01.390Z,22.08
2022-12-15T10:31:38.704Z,27.15
2022-12-15T10:34:10.564Z,25.00
2022-12-15T10:36:36.684Z,29.27
2022-12-15T10:39:02.653Z,25.52
2022-12-15T10:41:32.106Z,21.63
2022-12-15T10:43:57.909Z,18.63
2022-12-15T10:46:26.657Z,17.45
2022-12-15T10:48:56.787Z,14.50
2022-12-15T10:51:44.576Z,14.07
2022-12-15T10:54:15.400Z,12.93
2022-12-15T10:56:55.713Z,12.18
2022-12-15T10:59:35.653Z,12.13
2022-12-15T11:02:25.643Z,12.77
2022-12-15T11:05:15.382Z,39.78
2022-12-15T11:07:50.478Z,39.65
2022-12-15T11:10:24.900Z,25.65
2022-12-15T11:12:58.741Z,17.73
2022-12-15T11:15:30.482Z,13.15
2022-12-15T11:18:24.189Z,16.05
2022-12-15T11:20:55.450Z,14.55
2022-12-15T11:23:36.323Z,29.70
2022-12-15T11:26:22.396Z,31.45
2022-12-15T11:28:55.530Z,18.63
2022-12-15T11:31:37.569Z,19.33
2022-12-15T11:34:12.444Z,15.32
2022-12-15T11:36:51.770Z,14.10
2022-12-15T11:39:36.571Z,14.48
2022-12-15T11:44:58.615Z,13.50
2022-12-15T11:47:30.171Z,14.27
2022-12-15T11:50:13.760Z,13.98
2022-12-15T11:53:04.073Z,12.80
2022-12-15T11:55:57.853Z,11.30
2022-12-15T11:58:53.295Z,10.70
2022-12-15T12:01:26.591Z,10.05
2022-12-15T12:04:13.391Z,10.55
2022-12-15T12:07:04.089Z,10.32
2022-12-15T12:09:36.619Z,8.57
2022-12-15T12:12:21.610Z,8.32
2022-12-15T12:15:09.450Z,8.10
2022-12-15T12:18:21.046Z,7.88
2022-12-15T12:20:55.800Z,8.57
2022-12-15T12:23:27.434Z,10.18
2022-12-15T12:26:23.468Z,10.00
2022-12-15T12:31:32.085Z,7.68
2022-12-15T12:34:05.638Z,7.65
2022-12-15T12:36:31.429Z,6.85
2022-12-15T12:38:57.825Z,7.15
2022-12-15T12:41:45.636Z,7.20
2022-12-15T12:44:32.902Z,7.38
2022-12-15T12:50:03.029Z,7.85
2022-12-15T12:52:36.747Z,6.15
2022-12-15T12:55:28.242Z,5.80
2022-12-15T12:57:54.988Z,6.22
2022-12-15T13:00:27.820Z,6.38
2022-12-15T13:02:55.332Z,5.82
2022-12-15T13:05:31.719Z,6.38
2022-12-15T13:08:07.194Z,6.13
2022-12-15T13:10:41.772Z,6.60
2022-12-15T13:13:30.583Z,5.93
2022-12-15T13:16:31.056Z,5.38
2022-12-15T13:19:14.793Z,6.38
2022-12-15T13:21:40.873Z,7.70
2022-12-15T13:24:45.938Z,7.18
2022-12-15T13:27:16.395Z,7.35
2022-12-15T13:30:06.554Z,7.40
2022-12-15T13:32:39.706Z,7.75
2022-12-15T13:35:11.228Z,8.43
2022-12-15T13:37:55.157Z,7.25
2022-12-15T13:40:37.067Z,8.10
2022-12-15T13:43:02.856Z,6.95
2022-12-15T13:45:35.679Z,7.90
2022-12-15T13:48:12.728Z,8.43
2022-12-15T13:50:51.238Z,7.55
2022-12-15T13:53:21.069Z,8.35
2022-12-15T13:56:33.909Z,8.23
2022-12-15T13:59:24.717Z,9.05
2022-12-15T14:01:52.133Z,9.52
2022-12-15T14:04:18.214Z,11.30
2022-12-15T14:06:53.015Z,11.15
2022-12-15T14:09:23.380Z,8.45
2022-12-15T14:11:54.313Z,11.05
2022-12-15T14:14:30.768Z,12.02
2022-12-15T14:17:00.558Z,12.95
2022-12-15T14:19:38.455Z,11.32
2022-12-15T14:22:27.152Z,8.80
2022-12-15T14:25:17.693Z,10.00
2022-12-15T14:27:43.558Z,9.00
2022-12-15T14:30:18.882Z,8.05
2022-12-15T14:32:48.299Z,8.45
2022-12-15T14:35:44.042Z,8.73
2022-12-15T14:38:26.020Z,14.80
2022-12-15T14:40:55.900Z,9.68
2022-12-15T14:43:29.158Z,9.70
2022-12-15T14:46:07.438Z,12.57
2022-12-15T14:48:41.819Z,19.52
2022-12-15T14:51:10.732Z,26.52
2022-12-15T14:53:39.171Z,17.13
2022-12-15T14:56:29.365Z,15.32
2022-12-15T14:59:18.731Z,14.60
2022-12-15T15:02:02.183Z,15.90
2022-12-15T15:04:33.359Z,14.70
2022-12-15T15:07:05.822Z,13.32
2022-12-15T15:09:40.639Z,15.30
2022-12-15T15:12:13.028Z,13.18
2022-12-15T15:14:51.114Z,12.40
2022-12-15T15:17:24.057Z,13.57
2022-12-15T15:20:02.366Z,12.23
2022-12-15T15:22:42.684Z,14.02
2022-12-15T15:25:36.223Z,13.75
2022-12-15T15:28:17.531Z,12.48
2022-12-15T15:30:44.769Z,12.10
2022-12-15T15:33:12.764Z,11.57
2022-12-15T15:35:40.945Z,12.35
2022-12-15T15:38:14.020Z,9.93
2022-12-15T15:40:39.838Z,9.73
2022-12-15T15:43:16.354Z,8.13
2022-12-15T15:45:42.674Z,6.00
2022-12-15T15:48:16.567Z,6.32
2022-12-15T15:50:43.898Z,4.70
2022-12-15T15:53:18.835Z,4.28
2022-12-15T15:55:46.419Z,6.05
2022-12-15T15:58:12.752Z,7.63
2022-12-15T16:00:39.445Z,9.57
2022-12-15T16:03:06.096Z,15.18
2022-12-15T16:05:32.315Z,18.05
2022-12-15T16:07:59.941Z,26.17
2022-12-15T16:10:26.149Z,26.65
2022-12-15T16:12:54.905Z,24.13
2022-12-15T16:15:25.204Z,17.52
2022-12-15T16:17:52.520Z,12.93
2022-12-15T16:20:21.493Z,12.48
2022-12-15T16:22:51.595Z,10.30
2022-12-15T16:25:37.381Z,10.88
2022-12-15T16:28:14.020Z,9.00
2022-12-15T16:30:40.928Z,9.25
2022-12-15T16:33:07.007Z,9.07
2022-12-15T16:35:32.996Z,8.98
2022-12-15T16:37:58.835Z,8.70
2022-12-15T16:40:26.895Z,9.25
2022-12-15T16:43:00.758Z,8.88
2022-12-15T16:45:29.906Z,8.65
2022-12-15T16:47:57.147Z,8.63
2022-12-15T16:50:33.460Z,8.75
2022-12-15T16:53:00.562Z,7.20
2022-12-15T16:55:28.560Z,14.02
2022-12-15T16:58:00.769Z,7.25
2022-12-15T17:00:33.488Z,7.88
2022-12-15T17:03:00.549Z,6.82
2022-12-15T17:05:31.354Z,8.13
2022-12-15T17:08:00.073Z,7.93
2022-12-15T17:10:28.673Z,7.90
2022-12-15T17:13:06.197Z,8.43
2022-12-15T17:15:32.430Z,7.28
2022-12-15T17:17:58.244Z,7.75
2022-12-15T17:20:29.762Z,7.95
2022-12-15T17:23:03.204Z,7.30
2022-12-15T17:28:39.963Z,6.88
2022-12-15T17:31:20.435Z,9.32
2022-12-15T17:33:47.444Z,8.20
2022-12-15T17:36:20.523Z,10.15
2022-12-15T17:38:51.057Z,7.97
2022-12-15T17:41:42.317Z,7.70
2022-12-15T17:44:31.630Z,8.18
2022-12-15T17:46:48.946Z,8.13
2022-12-15T17:49:14.871Z,8.68
2022-12-15T17:51:42.859Z,8.50
2022-12-15T17:54:13.305Z,9.70
2022-12-15T17:56:41.152Z,9.38
2022-12-15T17:59:14.824Z,10.10
2022-12-15T18:01:42.309Z,10.95
2022-12-15T18:04:09.460Z,10.73
2022-12-15T18:06:37.033Z,9.52
2022-12-15T18:09:03.396Z,10.55
2022-12-15T18:11:30.079Z,8.90
2022-12-15T18:13:56.318Z,8.48
2022-12-15T18:16:22.240Z,9.48
2022-12-15T18:18:48.168Z,10.80
2022-12-15T18:21:16.003Z,10.20
2022-12-15T18:23:42.742Z,20.85
2022-12-15T18:26:12.590Z,11.15
2022-12-15T18:28:38.678Z,13.05
2022-12-15T18:31:26.081Z,11.55
2022-12-15T18:33:59.497Z,32.20
2022-12-15T18:36:28.526Z,31.25
2022-12-15T18:38:54.302Z,27.95
2022-12-15T18:41:20.852Z,26.75
2022-12-15T18:43:57.857Z,25.67
2022-12-15T18:46:24.415Z,24.23
2022-12-15T18:48:50.341Z,22.33
2022-12-15T18:51:19.553Z,19.95
2022-12-15T18:53:47.146Z,19.65
2022-12-15T18:56:15.100Z,17.05
2022-12-15T18:58:41.242Z,13.77
2022-12-15T19:01:07.921Z,15.73
2022-12-15T19:03:35.818Z,13.63
2022-12-15T19:06:34.181Z,11.98
2022-12-15T19:09:02.880Z,11.82
2022-12-15T19:11:30.409Z,12.00
2022-12-15T19:13:58.093Z,11.95
2022-12-15T19:16:24.427Z,13.13
2022-12-15T19:19:15.425Z,11.80
2022-12-15T19:22:01.948Z,10.43
2022-12-15T19:24:48.708Z,10.13
2022-12-15T19:27:19.596Z,9.77
2022-12-15T19:29:46.493Z,9.32
2022-12-15T19:32:12.634Z,8.60
2022-12-15T19:34:39.298Z,7.35
2022-12-15T19:37:11.762Z,8.00
2022-12-15T19:39:38.433Z,6.80
2022-12-15T19:42:13.098Z,5.93
2022-12-15T19:44:39.256Z,5.90
2022-12-15T19:47:12.811Z,14.63
2022-12-15T19:49:40.256Z,12.23
2022-12-15T19:52:15.025Z,9.88
2022-12-15T19:54:42.864Z,8.20
2022-12-15T19:57:13.579Z,7.50
2022-12-15T19:59:39.942Z,6.82
2022-12-15T20:02:06.542Z,6.50
2022-12-15T20:04:33.332Z,6.65
2022-12-15T20:07:03.500Z,4.53
2022-12-15T20:09:29.604Z,4.20
2022-12-15T20:11:55.529Z,4.70
2022-12-15T20:14:21.628Z,6.13
2022-12-15T20:16:49.600Z,7.35
2022-12-15T20:19:15.535Z,8.65
2022-12-15T20:21:41.500Z,7.78
2022-12-15T20:24:13.314Z,7.85
2022-12-15T20:26:39.851Z,7.03
2022-12-15T20:29:19.826Z,7.35
2022-12-15T20:31:45.634Z,6.78
2022-12-15T20:34:11.649Z,7.53
2022-12-15T20:36:38.143Z,6.70
2022-12-15T20:39:04.316Z,6.57
2022-12-15T20:41:30.116Z,7.07
2022-12-15T20:43:57.170Z,6.43
2022-12-15T20:46:26.144Z,6.93
2022-12-15T20:48:54.362Z,5.75
2022-12-15T20:51:26.355Z,5.68
2022-12-15T20:53:55.534Z,5.40
2022-12-15T20:56:22.486Z,5.28
2022-12-15T20:58:52.908Z,5.57
2022-12-15T21:01:28.156Z,5.80
2022-12-15T21:03:56.777Z,4.70
2022-12-15T21:06:24.515Z,5.03
2022-12-15T21:08:51.047Z,5.35
2022-12-15T21:11:19.085Z,5.43
2022-12-15T21:13:46.845Z,6.10
2022-12-15T21:16:18.873Z,6.57
2022-12-15T21:21:38.137Z,7.20
2022-12-15T21:24:15.594Z,7.13
2022-12-15T21:26:41.889Z,8.40
2022-12-15T21:29:17.405Z,7.95
2022-12-15T21:34:09.220Z,7.25
2022-12-15T21:36:36.730Z,8.18
2022-12-15T21:39:05.042Z,8.45
2022-12-15T21:41:31.264Z,8.40
2022-12-15T21:43:57.094Z,8.30
2022-12-15T21:46:28.053Z,8.57
2022-12-15T21:49:16.779Z,8.95
2022-12-15T21:51:45.999Z,8.27
2022-12-15T21:54:25.982Z,9.38
2022-12-15T21:56:55.266Z,8.00
2022-12-15T21:59:23.369Z,8.00
2022-12-15T22:01:50.101Z,9.43
2022-12-15T22:04:20.775Z,8.52
2022-12-15T22:06:50.913Z,8.82
2022-12-15T22:09:17.827Z,9.02
2022-12-15T22:11:46.140Z,10.02
2022-12-15T22:14:29.880Z,10.90
2022-12-15T22:16:57.897Z,9.70
2022-12-15T22:19:24.150Z,11.63
2022-12-15T22:21:50.155Z,11.00
2022-12-15T22:24:16.070Z,10.50
2022-12-15T22:26:42.184Z,11.68
2022-12-15T22:29:21.878Z,9.60
2022-12-15T22:31:49.634Z,11.18
2022-12-15T22:34:20.883Z,7.93
2022-12-15T22:36:47.550Z,7.13
2022-12-15T22:39:14.271Z,6.82
2022-12-15T22:41:42.982Z,7.22
2022-12-15T22:44:20.006Z,7.25
2022-12-15T22:46:47.749Z,6.30
2022-12-15T22:49:22.674Z,5.63
2022-12-15T22:51:48.468Z,6.03
2022-12-15T22:54:20.109Z,5.78
2022-12-15T22:56:50.133Z,4.72
2022-12-15T22:59:33.638Z,5.55
2022-12-15T23:02:01.690Z,4.30
2022-12-15T23:04:28.845Z,4.05
2022-12-15T23:06:54.900Z,4.15
2022-12-15T23:09:20.838Z,4.68
2022-12-15T23:11:47.102Z,4.90
2022-12-15T23:14:17.444Z,4.57
2022-12-15T23:16:46.252Z,5.38
2022-12-15T23:19:29.977Z,6.45
2022-12-15T23:21:55.818Z,6.82
2022-12-15T23:24:21.634Z,6.82
2022-12-15T23:26:47.391Z,6.75
2022-12-15T23:29:13.569Z,7.25
2022-12-15T23:31:39.587Z,7.85
2022-12-15T23:34:05.549Z,8.32
2022-12-15T23:36:31.323Z,7.57
2022-12-15T23:38:57.657Z,8.25
2022-12-15T23:41:23.508Z,10.43
2022-12-15T23:43:49.455Z,9.95
2022-12-15T23:46:15.307Z,10.65
2022-12-15T23:48:42.913Z,12.45
2022-12-15T23:51:14.785Z,10.82
2022-12-15T23:53:41.783Z,9.98
2022-12-15T23:56:13.398Z,10.70
2022-12-15T23:58:41.154Z,9.68
